• Join FlightAware (Why Join?)
  • Login
  • US Flag 
06:53PM EST


 

Airport Tracker/Info


-or-


 

Live Flight TrackerFlight Track Log ✈ GJS6267 ✈ 12-Jul-2013 ✈ KSTL - KLGA

Flight Track Log - Related Links

Times and Time Zones

All times are in EDT time to prevent confusion due to time zone crossing. See the GJS6267 flight status page for this flight to view local times or setup timezone preferences in your user account.

Time Position Orientation Groundspeed Altitude Reporting Facility
EDT Latitude Longitude Course Direction KTS MPH feet Rate Location/Type
05:58PM 38.7333 -90.2833 76° East 182 209 2,500  Level Gateway (St. Louis) TRACON
05:59PM 38.7269 -90.2133 97° East 212 244 4,000 1,980 Climbing Kansas City Center
06:00PM 38.7067 -90.1275 107° East 244 281 6,400 2,100 Climbing Kansas City Center
06:01PM 38.6786 -90.0367 112° Southeast 261 300 8,400 2,040 Climbing Kansas City Center
06:02PM 38.6486 -89.9403 112° Southeast 284 327 10,600 1,980 Climbing Kansas City Center
06:03PM 38.6108 -89.8181 112° Southeast 304 350 12,600 1,500 Climbing Kansas City Center
06:04PM 39.0526 -88.7834 76° East  Level Estimated
06:04PM 38.5742 -89.7031 112° Southeast 338 389 13,800  Level Kansas City Center
06:05PM 38.5350 -89.5736 111° Southeast 372 428 15,200 1,680 Climbing Kansas City Center
06:06PM 38.4975 -89.4364 109° East 381 438 17,300 1,560 Climbing Kansas City Center
06:07PM 38.4614 -89.3083 110° East 385 443 18,500 1,200 Climbing Kansas City Center
06:08PM 38.4208 -89.1639 110° East 402 463 19,800 1,200 Climbing Kansas City Center
06:09PM 38.3750 -89.0286 113° Southeast 415 478 21,000 1,200 Climbing Kansas City Center
06:10PM 38.3256 -88.8942 115° Southeast 418 481 22,400 1,200 Climbing Kansas City Center
06:11PM 38.2783 -88.7608 114° Southeast 416 479 23,600 960 Climbing Kansas City Center
06:12PM 38.2264 -88.6067 113° Southeast 424 488 24,500 780 Climbing Kansas City Center
06:13PM 38.1756 -88.4628 114° Southeast 438 504 25,300 780 Climbing Kansas City Center
06:14PM 38.1392 -88.3147 107° East 447 514 26,100 780 Climbing Indianapolis Center
06:16PM 38.1381 -88.1631 90° East 434 499 26,900 720 Climbing Indianapolis Center
06:17PM 38.1381 -88.0108 90° East 431 496 27,700 780 Climbing Indianapolis Center
06:18PM 38.1369 -87.8569 90° East 434 499 28,600 900 Climbing Indianapolis Center
06:19PM 38.1358 -87.7042 90° East 434 499 29,600 900 Climbing Indianapolis Center
06:20PM 38.1356 -87.5533 90° East 428 493 30,500 780 Climbing Indianapolis Center
06:21PM 38.1322 -87.3742 91° East 425 489 31,300 660 Climbing Indianapolis Center
06:22PM 38.1311 -87.2222 90° East 432 497 31,900 540 Climbing Indianapolis Center
06:23PM 38.1286 -87.0711 91° East 435 501 32,500 540 Climbing Indianapolis Center
06:24PM 38.1272 -86.9194 91° East 437 503 33,100 660 Climbing Indianapolis Center
06:25PM 38.1253 -86.7364 91° East 435 501 33,900 660 Climbing Indianapolis Center
06:26PM 38.1233 -86.5858 91° East 431 496 34,500 540 Climbing Indianapolis Center
06:27PM 38.1206 -86.4344 91° East 430 495 35,100 540 Climbing Indianapolis Center
06:28PM 38.1178 -86.2839 91° East 427 491 35,700 540 Climbing Indianapolis Center
06:29PM 38.1153 -86.1353 91° East 423 487 36,300 540 Climbing Indianapolis Center
06:30PM 38.1131 -85.9853 91° East 424 488 36,900 300 Climbing Indianapolis Center
06:31PM 38.1092 -85.8378 92° East 420 483 37,000  Climbing Indianapolis Center
06:32PM 38.1056 -85.6547 91° East 432 497 37,000  Level Indianapolis Center
06:33PM 38.0928 -85.5019 96° East 438 504 37,000  Level Indianapolis Center
06:34PM 38.0678 -85.3464 101° East 449 517 37,000  Level Indianapolis Center
06:35PM 38.0442 -85.1933 101° East 444 511 37,000  Level Indianapolis Center
06:36PM 38.0161 -85.0208 102° East 442 509 37,000  Level Indianapolis Center
06:37PM 37.9928 -84.8661 101° East 446 513 37,000  Level Indianapolis Center
06:38PM 37.9672 -84.7125 102° East 447 514 37,000  Level Indianapolis Center
06:39PM 37.9425 -84.5597 102° East 441 507 37,000  Level Indianapolis Center
06:40PM 37.9169 -84.4050 102° East 445 512 37,000  Level Indianapolis Center
06:41PM 37.8917 -84.2511 102° East 447 514 37,000  Level Indianapolis Center
06:42PM 37.8614 -84.0708 102° East 447 514 37,000  Level Indianapolis Center
06:43PM 37.8347 -83.9175 102° East 446 513 37,000  Level Indianapolis Center
06:44PM 37.8100 -83.7583 101° East 457 526 37,000  Level Indianapolis Center
06:45PM 37.7814 -83.6022 103° East 456 525 37,000  Level Indianapolis Center
06:47PM 37.7544 -83.4425 102° East 461 531 37,000  Level Indianapolis Center
06:48PM 37.7258 -83.2819 103° East 463 533 37,000  Level Indianapolis Center
06:49PM 37.6931 -83.0911 102° East 471 542 37,000  Level Indianapolis Center
06:50PM 37.6639 -82.9269 103° East 476 548 37,000  Level Indianapolis Center
06:51PM 37.6383 -82.7653 101° East 469 540 37,000  Level Indianapolis Center
06:52PM 37.6492 -82.5978 85° East 478 550 37,000  Level Indianapolis Center
06:53PM 37.6653 -82.4264 83° East 485 558 37,000  Level Indianapolis Center
06:54PM 37.6814 -82.2569 83° East 484 557 37,000  Level Indianapolis Center
06:55PM 37.6994 -82.0925 82° East 473 544 37,000  Level Indianapolis Center
06:56PM 37.7183 -81.8947 83° East 483 556 37,000  Level Indianapolis Center
06:57PM 37.7342 -81.7267 83° East 481 554 37,000  Level Indianapolis Center
06:58PM 37.7497 -81.5594 83° East 480 552 37,000  Level Indianapolis Center
06:59PM 37.7664 -81.3781 83° East 481 554 37,000  Level Indianapolis Center
07:00PM 37.7800 -81.2144 84° East 484 557 37,000  Level Indianapolis Center
07:01PM 37.7950 -81.0478 83° East 489 563 37,000  Level Indianapolis Center
07:02PM 37.8097 -80.8819 84° East 488 562 37,000  Level Indianapolis Center
07:03PM 37.8233 -80.7078 84° East 492 566 37,000  Level Indianapolis Center
07:04PM 37.8406 -80.5008 84° East 493 567 37,000  Level Indianapolis Center
07:05PM 37.8542 -80.3417 84° East 498 573 37,000  Level Indianapolis Center
07:06PM 37.8703 -80.1364 84° East 500 575 37,000  Level Indianapolis Center
07:07PM 37.8850 -79.9675 84° East 495 570 37,000  Level Indianapolis Center
07:08PM 37.8983 -79.7997 84° East 490 564 37,000  Level Indianapolis Center
07:09PM 37.9119 -79.6336 84° East 486 559 37,000  Level Indianapolis Center
07:10PM 37.9306 -79.4278 83° East 489 563 37,000  Level Washington Center
07:11PM 37.9417 -79.2756 85° East 483 556 37,000  Level Washington Center
07:12PM 37.9531 -79.1022 85° East 483 556 37,000  Level Washington Center
07:13PM 37.9661 -78.9344 84° East 478 550 37,000  Level Washington Center
07:14PM 37.9769 -78.7636 85° East 478 550 37,000  Level Washington Center
07:15PM 37.9881 -78.5769 86° East 478 550 37,000  Level Washington Center
07:16PM 38.0006 -78.4089 85° East 478 550 37,000  Level Washington Center
07:17PM 38.0128 -78.2378 85° East 478 550 37,000  Level Washington Center
07:18PM 38.0183 -78.0747 87° East 472 543 37,000  Level Washington Center
07:19PM 38.0253 -77.9325 86° East 459 528 37,000  Level Washington Center
07:20PM 38.0367 -77.7747 85° East 454 522 37,000  Level Washington Center
07:21PM 38.0456 -77.6142 86° East 454 522 37,000  Level Washington Center
07:22PM 38.0544 -77.4536 86° East 454 522 37,000  Level Washington Center
07:23PM 38.0653 -77.2928 85° East 454 522 37,000  Level Washington Center
07:24PM 38.0739 -77.1083 87° East 474 545 37,000  Level Washington Center
07:25PM 38.0819 -76.9556 86° East 481 554 37,000  Level Washington Center
07:26PM 38.0900 -76.7975 86° East 469 540 37,000  Level Washington Center
07:27PM 38.1269 -76.6397 73° East 464 534 37,000 -720 Level Washington Center
07:28PM 38.2136 -76.5033 51° Northeast 461 531 35,600 -1,740 Descending Washington Center
07:29PM 38.3083 -76.3803 46° Northeast 473 544 33,500 -2,160 Descending Washington Center
07:30PM 38.4236 -76.2756 35° Northeast 478 550 31,400 1,740 Descending Washington Center
07:31PM 38.5347 -76.1703 37° Northeast 491 565 37,000 -2,040 Climbing Washington Center
07:32PM 38.6475 -76.0647 36° Northeast 502 578 27,300 -5,040 Descending Washington Center
07:33PM 38.7583 -75.9669 35° Northeast 495 570 27,000 -180 Descending Washington Center
07:34PM 38.8650 -75.8661 36° Northeast 485 558 27,000  Level Washington Center
07:35PM 38.9736 -75.7653 36° Northeast 479 551 27,000 -600 Level Washington Center
07:36PM 39.0800 -75.6611 37° Northeast 479 551 25,900 -1,320 Descending Washington Center
07:37PM 39.1842 -75.5647 36° Northeast 474 545 24,400 -1,440 Descending Washington Center
07:38PM 39.2864 -75.4708 35° Northeast 461 531 23,100 -1,440 Descending Washington Center
07:39PM 39.3861 -75.3794 35° Northeast 450 518 21,600 -1,500 Descending Washington Center
07:40PM 39.4881 -75.2903 34° Northeast 444 511 20,200 -1,440 Descending Washington Center
07:41PM 39.5817 -75.2039 35° Northeast 438 504 18,800 -1,560 Descending Washington Center
07:42PM 39.6814 -75.1117 35° Northeast 417 480 17,200 -1,440 Descending Washington Center
07:43PM 39.7767 -75.0300 33° Northeast 404 465 15,900 -1,500 Descending Washington Center
07:44PM 39.8700 -74.9453 35° Northeast 398 458 14,200 -1,560 Descending Washington Center
07:45PM 39.9500 -74.8667 37° Northeast 386 444 13,000 -1,440 Descending New York TRACON
07:46PM 40.0167 -74.7667 49° Northeast 373 429 11,500 -1,500 Descending New York TRACON
07:47PM 40.0833 -74.6667 49° Northeast 355 409 10,100 -780 Descending New York TRACON
07:48PM 40.1500 -74.5833 44° Northeast 353 406 10,000 -60 Descending New York TRACON
07:49PM 40.2167 -74.4833 49° Northeast 355 409 10,000 -300 Level New York TRACON
07:50PM 40.2833 -74.3833 49° Northeast 302 348 9,400 -1,020 Descending New York TRACON
07:51PM 40.3500 -74.3167 37° Northeast 283 326 7,900 -1,200 Descending New York TRACON
07:52PM 40.3833 -74.2500 57° Northeast 226 260 7,000 -480 Descending New York TRACON
07:53PM 40.4167 -74.2000 49° Northeast 189 217 7,000 -240 Level New York TRACON
07:54PM 40.4500 -74.1500 49° Northeast 188 216 6,600 -900 Descending New York TRACON
07:55PM 40.4833 -74.1167 37° Northeast 180 207 5,300 -1,320 Descending New York TRACON
07:56PM 40.5333 -74.0833 27° Northeast 178 205 4,000 -900 Descending New York TRACON
07:57PM 40.5667 -74.0500 37° Northeast 162 186 3,500 -420 Descending New York TRACON
07:58PM 40.6000 -74.0167 37° Northeast 143 165 3,200 -300 Descending New York TRACON
07:59PM 40.6333 -74.0000 21° North 142 163 2,900 -480 Descending New York TRACON
08:00PM 40.6667 -73.9667 37° Northeast 139 160 2,300 -660 Descending New York TRACON
08:01PM 40.7000 -73.9333 37° Northeast 115 132 1,600 -720 Descending New York TRACON
08:02PM 40.7333 -73.9167 21° North 122 140 900 -660 Descending New York TRACON